Terminal Aerodrome Forecast
Issued by NWS Portland, OR

Home | Current Version | Previous Version | Text Only | Print | Product List | Glossary On
Versions: 1 2 3 4 5 6 7 8 9 10 11 12
000
FTUS46 KPQR 232331
TAFHIO
TAF
KHIO 232331Z 2400/2424 VRB03KT P6SM BKN100
     FM240900 00000KT 4SM BR SCT007 BKN080
     FM241300 00000KT 2SM BR SCT006 OVC025
     FM241900 VRB02KT 5SM BR OVC030=

USA.gov is the U.S. government's official web portal to all federal, state and local government web resources and services.